Mc Indoe Falls, Vermont
Current Conditions -  °F | °C
As of 3:55 PM on Saturday 20 Dec 2014 (Local Time) from KCDA Reporting Station
Clear Clear  
Wind Chill: 24°   Ceiling: Unl
Heat Index: 24°   Visibility: 10mi
Dew Point: 15°   Wind: 0mph
Humidity: 68%   Direction: NA
Pressure: 30.25"   Gusts: NA
Location:  44.2588°N, 72.0585°W
Report Text: KCDA 202055Z AUTO 00000KT 10SM CLR M04/M10 A3025 RMK AO2 T10451096
Loading
Personal Weather Stations






























Interactive Weather Map New forecast layout! Learn more

10-Day Weather Forecast

Advertisements
Track Severe Weather on mobile